createdAt,value
2023-03-12T00:04:29.894Z,0.81
2023-03-12T00:09:21.568Z,0.30
2023-03-12T00:14:13.432Z,0.79
2023-03-12T00:19:05.184Z,1.52
2023-03-12T00:23:56.980Z,0.25
2023-03-12T00:28:50.483Z,0.64
2023-03-12T00:33:42.294Z,1.28
2023-03-12T00:38:34.125Z,0.74
2023-03-12T00:43:26.428Z,1.34
2023-03-12T00:48:18.307Z,1.44
2023-03-12T00:53:10.137Z,1.44
2023-03-12T00:58:01.982Z,1.44
2023-03-12T01:02:55.453Z,1.43
2023-03-12T01:07:47.422Z,0.67
2023-03-12T01:12:39.120Z,0.71
2023-03-12T01:17:30.953Z,0.21
2023-03-12T01:22:23.542Z,0.87
2023-03-12T01:27:15.171Z,0.71
2023-03-12T01:32:07.127Z,0.50
2023-03-12T01:36:59.519Z,1.54
2023-03-12T01:41:51.504Z,1.23
2023-03-12T01:46:46.044Z,0.97
2023-03-12T01:51:55.662Z,1.39
2023-03-12T01:56:50.640Z,0.79
2023-03-12T02:01:43.491Z,1.52
2023-03-12T02:06:43.797Z,1.09
2023-03-12T02:11:35.944Z,1.63
2023-03-12T02:16:27.768Z,0.42
2023-03-12T02:21:24.057Z,1.67
2023-03-12T02:26:19.427Z,0.91
2023-03-12T02:31:16.351Z,0.96
2023-03-12T02:36:09.336Z,1.10
2023-03-12T02:41:12.256Z,1.77
2023-03-12T02:46:04.883Z,1.61
2023-03-12T02:50:56.634Z,1.29
2023-03-12T02:55:48.555Z,0.90
2023-03-12T03:00:40.370Z,1.62
2023-03-12T03:05:32.829Z,1.33
2023-03-12T03:10:24.855Z,1.40
2023-03-12T03:15:16.769Z,1.70
2023-03-12T03:20:11.366Z,1.91
2023-03-12T03:25:04.354Z,0.87
2023-03-12T03:29:56.262Z,1.29
2023-03-12T03:34:48.373Z,0.63
2023-03-12T03:39:41.540Z,1.20
2023-03-12T03:44:33.364Z,1.14
2023-03-12T03:49:26.172Z,1.92
2023-03-12T03:54:18.309Z,1.98
2023-03-12T03:59:11.473Z,1.99
2023-03-12T04:04:05.461Z,0.71
2023-03-12T04:08:59.358Z,1.19
2023-03-12T04:13:52.675Z,2.09
2023-03-12T04:18:48.293Z,2.18
2023-03-12T04:23:41.996Z,1.60
2023-03-12T04:28:36.061Z,2.21
2023-03-12T04:33:29.813Z,2.25
2023-03-12T04:38:24.196Z,2.32
2023-03-12T04:43:20.793Z,2.21
2023-03-12T04:48:13.331Z,2.20
2023-03-12T04:53:05.101Z,1.47
2023-03-12T04:57:56.740Z,1.26
2023-03-12T05:02:49.250Z,1.48
2023-03-12T05:07:41.850Z,0.38
2023-03-12T05:12:33.632Z,1.43
2023-03-12T05:17:25.355Z,1.01
2023-03-12T05:22:17.619Z,-0.11
2023-03-12T05:27:09.940Z,1.14
2023-03-12T05:32:02.818Z,0.30
2023-03-12T05:36:54.664Z,-0.42
2023-03-12T05:41:49.202Z,1.14
2023-03-12T05:46:43.983Z,1.19
2023-03-12T05:51:36.641Z,0.51
2023-03-12T05:56:28.623Z,1.18
2023-03-12T06:01:25.837Z,0.77
2023-03-12T06:06:20.218Z,0.33
2023-03-12T06:11:12.704Z,-0.65
2023-03-12T06:16:05.669Z,1.33
2023-03-12T06:21:15.562Z,1.20
2023-03-12T06:26:07.678Z,1.52
2023-03-12T06:31:00.135Z,0.14
2023-03-12T06:35:56.624Z,1.70
2023-03-12T06:41:16.162Z,1.79
2023-03-12T06:46:11.350Z,1.02
2023-03-12T06:51:04.532Z,1.79
2023-03-12T06:55:56.367Z,1.53
2023-03-12T07:00:48.017Z,1.81
2023-03-12T07:05:40.027Z,0.99
2023-03-12T07:10:31.958Z,1.83
2023-03-12T07:15:24.316Z,1.71
2023-03-12T07:20:16.296Z,2.34
2023-03-12T07:25:09.852Z,2.36
2023-03-12T07:30:02.041Z,1.25
2023-03-12T07:34:53.704Z,1.11
2023-03-12T07:39:45.439Z,0.84
2023-03-12T07:44:37.183Z,2.35
2023-03-12T07:49:28.958Z,2.23
2023-03-12T07:54:20.977Z,2.82
2023-03-12T07:59:13.168Z,2.30
2023-03-12T08:04:05.055Z,1.02
2023-03-12T08:08:56.899Z,2.72
2023-03-12T08:13:48.699Z,3.21
2023-03-12T08:18:43.048Z,2.54
2023-03-12T08:23:35.673Z,2.88
2023-03-12T08:28:28.142Z,3.57
2023-03-12T08:33:20.669Z,3.77
2023-03-12T08:38:12.560Z,3.92
2023-03-12T08:43:04.650Z,3.77
2023-03-12T08:47:56.413Z,3.44
2023-03-12T08:52:48.684Z,1.17
2023-03-12T08:57:40.953Z,3.56
2023-03-12T09:02:32.616Z,3.62
2023-03-12T09:07:24.381Z,4.24
2023-03-12T09:12:16.230Z,4.03
2023-03-12T09:17:07.886Z,3.40
2023-03-12T09:21:59.515Z,3.87
2023-03-12T09:26:51.213Z,4.55
2023-03-12T09:31:42.894Z,4.61
2023-03-12T09:36:34.583Z,4.67
2023-03-12T09:41:30.558Z,4.34
2023-03-12T09:46:33.831Z,4.31
2023-03-12T09:51:46.519Z,4.81
2023-03-12T09:56:38.499Z,4.15
2023-03-12T10:01:47.972Z,4.96
2023-03-12T10:07:01.061Z,5.30
2023-03-12T10:12:17.760Z,4.33
2023-03-12T10:17:15.556Z,5.69
2023-03-12T10:22:26.435Z,4.11
2023-03-12T10:27:18.949Z,5.10
2023-03-12T10:32:10.588Z,5.64
2023-03-12T10:37:21.525Z,3.87
2023-03-12T10:42:21.612Z,6.04
2023-03-12T10:47:38.027Z,5.07
2023-03-12T10:52:29.762Z,6.49
2023-03-12T10:57:22.051Z,5.79
2023-03-12T11:02:30.602Z,5.97
2023-03-12T11:07:29.550Z,7.04
2023-03-12T11:12:27.681Z,6.93
2023-03-12T11:17:25.408Z,7.09
2023-03-12T11:22:32.111Z,7.51
2023-03-12T11:27:59.192Z,8.55
2023-03-12T11:32:51.652Z,9.00
2023-03-12T11:38:16.243Z,9.70
2023-03-12T11:43:39.972Z,10.40
2023-03-12T11:48:42.887Z,10.94
2023-03-12T11:54:02.223Z,11.42
2023-03-12T11:59:39.116Z,11.60
2023-03-12T12:04:33.737Z,11.73
2023-03-12T12:09:44.275Z,11.85
2023-03-12T12:14:39.032Z,12.39
2023-03-12T12:19:36.818Z,12.90
2023-03-12T12:24:55.920Z,13.73
2023-03-12T12:30:02.955Z,14.35
2023-03-12T12:34:57.599Z,14.50
2023-03-12T12:40:01.404Z,14.83
2023-03-12T12:44:57.841Z,14.28
2023-03-12T12:49:55.350Z,14.64
2023-03-12T12:54:59.328Z,14.52
2023-03-12T13:00:28.347Z,14.00
2023-03-12T13:05:38.277Z,14.39
2023-03-12T13:10:33.028Z,14.24
2023-03-12T13:15:30.971Z,13.41
2023-03-12T13:20:28.956Z,13.12
2023-03-12T13:25:45.844Z,13.34
2023-03-12T13:30:37.488Z,13.64
2023-03-12T13:35:32.772Z,13.83
2023-03-12T13:40:30.616Z,13.65
2023-03-12T13:45:25.503Z,13.68
2023-03-12T13:50:17.432Z,12.48
2023-03-12T13:55:26.705Z,13.14
2023-03-12T14:00:40.300Z,13.44
2023-03-12T14:05:43.371Z,13.49
2023-03-12T14:11:00.123Z,13.48
2023-03-12T14:15:58.633Z,13.69
2023-03-12T14:21:06.333Z,13.43
2023-03-12T14:26:03.908Z,13.11
2023-03-12T14:31:05.757Z,13.58
2023-03-12T14:36:10.235Z,13.70
2023-03-12T14:41:14.620Z,13.46
2023-03-12T14:46:18.374Z,13.19
2023-03-12T14:51:28.656Z,13.05
2023-03-12T14:56:30.820Z,12.66
2023-03-12T15:01:34.476Z,13.53
2023-03-12T15:06:30.633Z,13.46
2023-03-12T15:11:25.131Z,13.13
2023-03-12T15:16:17.360Z,12.45
2023-03-12T15:21:09.268Z,12.85
2023-03-12T15:26:27.021Z,12.24
2023-03-12T15:31:18.947Z,11.90
2023-03-12T15:36:19.802Z,12.49
2023-03-12T15:41:20.144Z,11.88
2023-03-12T15:46:12.590Z,11.96
2023-03-12T15:51:14.123Z,12.28
2023-03-12T15:56:10.360Z,12.19
2023-03-12T16:01:18.342Z,12.10
2023-03-12T16:06:13.119Z,12.11
2023-03-12T16:11:10.009Z,12.22
2023-03-12T16:16:02.023Z,11.96
2023-03-12T16:20:54.156Z,11.72
2023-03-12T16:25:48.923Z,11.55
2023-03-12T16:30:40.913Z,11.13
2023-03-12T16:35:33.341Z,11.85
2023-03-12T16:40:33.348Z,11.91
2023-03-12T16:45:27.792Z,11.78
2023-03-12T16:50:22.421Z,11.74
2023-03-12T16:55:15.468Z,11.09
2023-03-12T17:00:11.929Z,10.81
2023-03-12T17:05:03.742Z,10.71
2023-03-12T17:09:55.436Z,10.55
2023-03-12T17:14:48.006Z,11.34
2023-03-12T17:19:39.743Z,11.19
2023-03-12T17:24:31.827Z,11.02
2023-03-12T17:29:23.892Z,10.30
2023-03-12T17:34:15.822Z,9.36
2023-03-12T17:39:07.524Z,10.72
2023-03-12T17:44:01.730Z,9.48
2023-03-12T17:48:53.754Z,10.01
2023-03-12T17:53:46.637Z,9.75
2023-03-12T17:58:38.906Z,9.96
2023-03-12T18:03:30.617Z,10.56
2023-03-12T18:08:22.316Z,10.16
2023-03-12T18:13:14.384Z,10.56
2023-03-12T18:18:06.078Z,10.15
2023-03-12T18:22:57.852Z,9.73
2023-03-12T18:27:49.473Z,10.52
2023-03-12T18:32:41.342Z,7.13
2023-03-12T18:37:33.691Z,10.50
2023-03-12T18:42:25.560Z,10.52
2023-03-12T18:47:19.004Z,10.54
2023-03-12T18:52:10.857Z,10.48
2023-03-12T18:57:02.542Z,8.10
2023-03-12T19:01:54.699Z,10.49
2023-03-12T19:06:51.238Z,10.49
2023-03-12T19:11:43.513Z,10.25
2023-03-12T19:16:35.200Z,9.98
2023-03-12T19:21:26.954Z,10.26
2023-03-12T19:26:18.529Z,9.37
2023-03-12T19:31:15.105Z,9.26
2023-03-12T19:36:07.652Z,10.03
2023-03-12T19:40:59.649Z,9.40
2023-03-12T19:45:52.968Z,9.56
2023-03-12T19:50:47.620Z,8.98
2023-03-12T19:55:39.709Z,8.15
2023-03-12T20:00:31.700Z,8.72
2023-03-12T20:05:23.368Z,9.01
2023-03-12T20:10:15.703Z,9.98
2023-03-12T20:15:08.496Z,9.51
2023-03-12T20:20:01.216Z,8.95
2023-03-12T20:24:53.958Z,9.85
2023-03-12T20:29:50.809Z,8.69
2023-03-12T20:34:42.484Z,8.84
2023-03-12T20:39:34.236Z,9.71
2023-03-12T20:44:26.001Z,9.17
2023-03-12T20:49:17.819Z,9.74
